sensor_id;sensor_type;location;lat;lon;timestamp;P1;durP1;ratioP1;P2;durP2;ratioP2
31732;SDS011;18312;51.486;7.144;2022-08-21T00:00:27;5.38;;;2.75;;
31732;SDS011;18312;51.486;7.144;2022-08-21T00:02:58;7.57;;;2.77;;
31732;SDS011;18312;51.486;7.144;2022-08-21T00:05:32;6.43;;;2.42;;
31732;SDS011;18312;51.486;7.144;2022-08-21T00:08:03;9.90;;;3.47;;
31732;SDS011;18312;51.486;7.144;2022-08-21T00:10:31;6.80;;;3.28;;
31732;SDS011;18312;51.486;7.144;2022-08-21T00:12:59;11.15;;;3.67;;
31732;SDS011;18312;51.486;7.144;2022-08-21T00:15:27;8.43;;;3.17;;
31732;SDS011;18312;51.486;7.144;2022-08-21T00:17:55;7.55;;;3.22;;
31732;SDS011;18312;51.486;7.144;2022-08-21T00:20:24;8.98;;;3.60;;
31732;SDS011;18312;51.486;7.144;2022-08-21T00:22:51;10.05;;;3.25;;
31732;SDS011;18312;51.486;7.144;2022-08-21T00:25:18;6.18;;;3.05;;
31732;SDS011;18312;51.486;7.144;2022-08-21T00:27:49;8.18;;;3.90;;
31732;SDS011;18312;51.486;7.144;2022-08-21T00:30:17;5.78;;;3.28;;
31732;SDS011;18312;51.486;7.144;2022-08-21T00:32:44;10.20;;;3.65;;
31732;SDS011;18312;51.486;7.144;2022-08-21T00:35:17;12.07;;;3.80;;
31732;SDS011;18312;51.486;7.144;2022-08-21T00:37:46;7.88;;;3.97;;
31732;SDS011;18312;51.486;7.144;2022-08-21T00:40:16;12.60;;;3.80;;
31732;SDS011;18312;51.486;7.144;2022-08-21T00:42:45;10.48;;;4.88;;
31732;SDS011;18312;51.486;7.144;2022-08-21T00:45:12;5.45;;;3.97;;
31732;SDS011;18312;51.486;7.144;2022-08-21T00:47:40;18.75;;;4.22;;
31732;SDS011;18312;51.486;7.144;2022-08-21T00:50:12;10.63;;;3.78;;
31732;SDS011;18312;51.486;7.144;2022-08-21T00:52:41;16.05;;;4.70;;
31732;SDS011;18312;51.486;7.144;2022-08-21T00:55:08;10.82;;;4.70;;
31732;SDS011;18312;51.486;7.144;2022-08-21T00:57:39;12.82;;;5.45;;
31732;SDS011;18312;51.486;7.144;2022-08-21T01:00:12;14.18;;;5.15;;
31732;SDS011;18312;51.486;7.144;2022-08-21T01:02:49;12.23;;;5.57;;
31732;SDS011;18312;51.486;7.144;2022-08-21T01:05:16;12.27;;;4.93;;
31732;SDS011;18312;51.486;7.144;2022-08-21T01:07:47;9.60;;;4.90;;
31732;SDS011;18312;51.486;7.144;2022-08-21T01:10:14;15.20;;;5.47;;
31732;SDS011;18312;51.486;7.144;2022-08-21T01:12:41;9.52;;;4.68;;
31732;SDS011;18312;51.486;7.144;2022-08-21T01:15:09;8.05;;;4.55;;
31732;SDS011;18312;51.486;7.144;2022-08-21T01:17:39;10.43;;;4.07;;
31732;SDS011;18312;51.486;7.144;2022-08-21T01:20:08;16.67;;;4.75;;
31732;SDS011;18312;51.486;7.144;2022-08-21T01:22:41;10.80;;;4.18;;
31732;SDS011;18312;51.486;7.144;2022-08-21T01:25:14;11.95;;;4.78;;
31732;SDS011;18312;51.486;7.144;2022-08-21T01:27:42;6.88;;;4.30;;
31732;SDS011;18312;51.486;7.144;2022-08-21T01:30:11;9.80;;;4.82;;
31732;SDS011;18312;51.486;7.144;2022-08-21T01:32:45;6.70;;;4.25;;
31732;SDS011;18312;51.486;7.144;2022-08-21T01:35:17;12.85;;;4.20;;
31732;SDS011;18312;51.486;7.144;2022-08-21T01:37:47;14.02;;;4.53;;
31732;SDS011;18312;51.486;7.144;2022-08-21T01:40:14;9.30;;;4.20;;
31732;SDS011;18312;51.486;7.144;2022-08-21T01:42:42;12.95;;;4.55;;
31732;SDS011;18312;51.486;7.144;2022-08-21T01:45:10;9.10;;;4.50;;
31732;SDS011;18312;51.486;7.144;2022-08-21T01:47:38;10.73;;;4.40;;
31732;SDS011;18312;51.486;7.144;2022-08-21T01:50:06;10.27;;;4.78;;
31732;SDS011;18312;51.486;7.144;2022-08-21T01:52:40;13.35;;;4.85;;
31732;SDS011;18312;51.486;7.144;2022-08-21T01:57:35;12.65;;;4.80;;
31732;SDS011;18312;51.486;7.144;2022-08-21T02:00:03;10.07;;;4.68;;
31732;SDS011;18312;51.486;7.144;2022-08-21T02:02:31;11.63;;;6.10;;
31732;SDS011;18312;51.486;7.144;2022-08-21T02:04:58;9.85;;;5.25;;
31732;SDS011;18312;51.486;7.144;2022-08-21T02:07:25;9.00;;;5.18;;
31732;SDS011;18312;51.486;7.144;2022-08-21T02:09:52;11.48;;;5.25;;
31732;SDS011;18312;51.486;7.144;2022-08-21T02:12:20;14.50;;;6.15;;
31732;SDS011;18312;51.486;7.144;2022-08-21T02:14:46;11.30;;;5.15;;
31732;SDS011;18312;51.486;7.144;2022-08-21T02:17:13;24.02;;;5.55;;
31732;SDS011;18312;51.486;7.144;2022-08-21T02:19:40;15.82;;;5.47;;
31732;SDS011;18312;51.486;7.144;2022-08-21T02:22:07;9.98;;;5.80;;
31732;SDS011;18312;51.486;7.144;2022-08-21T02:24:34;8.15;;;5.18;;
31732;SDS011;18312;51.486;7.144;2022-08-21T02:27:05;11.45;;;5.15;;
31732;SDS011;18312;51.486;7.144;2022-08-21T02:29:33;14.52;;;6.88;;
31732;SDS011;18312;51.486;7.144;2022-08-21T02:32:02;11.10;;;5.35;;
31732;SDS011;18312;51.486;7.144;2022-08-21T02:34:29;24.10;;;6.60;;
31732;SDS011;18312;51.486;7.144;2022-08-21T02:36:56;13.73;;;5.70;;
31732;SDS011;18312;51.486;7.144;2022-08-21T02:39:22;11.48;;;5.57;;
31732;SDS011;18312;51.486;7.144;2022-08-21T02:41:49;11.90;;;5.85;;
31732;SDS011;18312;51.486;7.144;2022-08-21T02:44:16;11.98;;;6.15;;
31732;SDS011;18312;51.486;7.144;2022-08-21T02:46:44;11.45;;;5.95;;
31732;SDS011;18312;51.486;7.144;2022-08-21T02:49:10;13.65;;;6.45;;
31732;SDS011;18312;51.486;7.144;2022-08-21T02:51:37;18.17;;;6.40;;
31732;SDS011;18312;51.486;7.144;2022-08-21T02:54:10;11.63;;;6.53;;
31732;SDS011;18312;51.486;7.144;2022-08-21T02:56:36;16.27;;;6.78;;
31732;SDS011;18312;51.486;7.144;2022-08-21T02:59:09;15.07;;;6.43;;
31732;SDS011;18312;51.486;7.144;2022-08-21T03:01:36;19.23;;;5.82;;
31732;SDS011;18312;51.486;7.144;2022-08-21T03:04:04;6.55;;;5.05;;
31732;SDS011;18312;51.486;7.144;2022-08-21T03:06:33;9.02;;;5.50;;
31732;SDS011;18312;51.486;7.144;2022-08-21T03:08:59;10.70;;;6.05;;
31732;SDS011;18312;51.486;7.144;2022-08-21T03:11:26;7.97;;;5.85;;
31732;SDS011;18312;51.486;7.144;2022-08-21T03:13:53;12.70;;;6.43;;
31732;SDS011;18312;51.486;7.144;2022-08-21T03:16:20;11.63;;;6.70;;
31732;SDS011;18312;51.486;7.144;2022-08-21T03:18:47;24.70;;;7.43;;
31732;SDS011;18312;51.486;7.144;2022-08-21T03:21:15;15.38;;;5.93;;
31732;SDS011;18312;51.486;7.144;2022-08-21T03:23:46;10.52;;;5.72;;
31732;SDS011;18312;51.486;7.144;2022-08-21T03:26:13;13.82;;;5.70;;
31732;SDS011;18312;51.486;7.144;2022-08-21T03:28:40;14.88;;;6.25;;
31732;SDS011;18312;51.486;7.144;2022-08-21T03:31:06;10.63;;;5.50;;
31732;SDS011;18312;51.486;7.144;2022-08-21T03:33:33;15.38;;;7.50;;
31732;SDS011;18312;51.486;7.144;2022-08-21T03:36:01;11.23;;;7.10;;
31732;SDS011;18312;51.486;7.144;2022-08-21T03:38:32;14.05;;;6.82;;
31732;SDS011;18312;51.486;7.144;2022-08-21T03:41:00;11.05;;;5.82;;
31732;SDS011;18312;51.486;7.144;2022-08-21T03:43:27;14.75;;;7.10;;
31732;SDS011;18312;51.486;7.144;2022-08-21T03:45:54;12.00;;;7.15;;
31732;SDS011;18312;51.486;7.144;2022-08-21T03:48:21;10.93;;;6.30;;
31732;SDS011;18312;51.486;7.144;2022-08-21T03:50:55;11.20;;;6.13;;
31732;SDS011;18312;51.486;7.144;2022-08-21T03:53:22;13.50;;;6.35;;
31732;SDS011;18312;51.486;7.144;2022-08-21T03:55:52;13.00;;;5.70;;
31732;SDS011;18312;51.486;7.144;2022-08-21T03:58:20;12.23;;;6.70;;
31732;SDS011;18312;51.486;7.144;2022-08-21T04:00:49;10.27;;;6.18;;
31732;SDS011;18312;51.486;7.144;2022-08-21T04:03:18;19.60;;;6.80;;
31732;SDS011;18312;51.486;7.144;2022-08-21T04:05:45;14.60;;;7.03;;
31732;SDS011;18312;51.486;7.144;2022-08-21T04:08:12;8.80;;;6.03;;
31732;SDS011;18312;51.486;7.144;2022-08-21T04:13:12;11.68;;;7.20;;
31732;SDS011;18312;51.486;7.144;2022-08-21T04:15:40;20.63;;;8.23;;
31732;SDS011;18312;51.486;7.144;2022-08-21T04:18:09;11.07;;;5.27;;
31732;SDS011;18312;51.486;7.144;2022-08-21T04:20:37;14.65;;;7.32;;
31732;SDS011;18312;51.486;7.144;2022-08-21T04:23:04;19.33;;;7.70;;
31732;SDS011;18312;51.486;7.144;2022-08-21T04:25:33;16.45;;;5.85;;
31732;SDS011;18312;51.486;7.144;2022-08-21T04:28:01;12.88;;;7.10;;
31732;SDS011;18312;51.486;7.144;2022-08-21T04:30:29;10.02;;;6.68;;
31732;SDS011;18312;51.486;7.144;2022-08-21T04:32:56;13.52;;;7.30;;
31732;SDS011;18312;51.486;7.144;2022-08-21T04:35:24;15.02;;;7.57;;
31732;SDS011;18312;51.486;7.144;2022-08-21T04:37:52;13.57;;;7.30;;
31732;SDS011;18312;51.486;7.144;2022-08-21T04:40:19;17.30;;;7.57;;
31732;SDS011;18312;51.486;7.144;2022-08-21T04:42:48;16.65;;;8.68;;
31732;SDS011;18312;51.486;7.144;2022-08-21T04:45:17;20.50;;;9.27;;
31732;SDS011;18312;51.486;7.144;2022-08-21T04:50:20;13.13;;;7.35;;
31732;SDS011;18312;51.486;7.144;2022-08-21T04:52:50;17.33;;;9.80;;
31732;SDS011;18312;51.486;7.144;2022-08-21T04:55:23;16.95;;;9.07;;
31732;SDS011;18312;51.486;7.144;2022-08-21T04:57:52;17.38;;;9.43;;
31732;SDS011;18312;51.486;7.144;2022-08-21T05:00:28;16.73;;;9.40;;
31732;SDS011;18312;51.486;7.144;2022-08-21T05:02:59;15.77;;;9.00;;
31732;SDS011;18312;51.486;7.144;2022-08-21T05:05:30;17.77;;;8.13;;
31732;SDS011;18312;51.486;7.144;2022-08-21T05:07:58;16.17;;;7.55;;
31732;SDS011;18312;51.486;7.144;2022-08-21T05:10:26;13.63;;;7.97;;
31732;SDS011;18312;51.486;7.144;2022-08-21T05:12:53;12.18;;;7.30;;
31732;SDS011;18312;51.486;7.144;2022-08-21T05:15:21;17.88;;;6.95;;
31732;SDS011;18312;51.486;7.144;2022-08-21T05:17:50;11.90;;;7.63;;
31732;SDS011;18312;51.486;7.144;2022-08-21T05:20:18;17.33;;;8.50;;
31732;SDS011;18312;51.486;7.144;2022-08-21T05:22:45;32.35;;;13.38;;
31732;SDS011;18312;51.486;7.144;2022-08-21T05:25:14;30.60;;;13.97;;
31732;SDS011;18312;51.486;7.144;2022-08-21T05:27:42;26.77;;;13.60;;
31732;SDS011;18312;51.486;7.144;2022-08-21T05:30:09;22.95;;;12.82;;
31732;SDS011;18312;51.486;7.144;2022-08-21T05:32:36;18.17;;;9.77;;
31732;SDS011;18312;51.486;7.144;2022-08-21T05:35:04;23.65;;;11.68;;
31732;SDS011;18312;51.486;7.144;2022-08-21T05:37:39;14.27;;;9.15;;
31732;SDS011;18312;51.486;7.144;2022-08-21T05:40:06;21.88;;;9.07;;
31732;SDS011;18312;51.486;7.144;2022-08-21T05:42:36;16.98;;;9.52;;
31732;SDS011;18312;51.486;7.144;2022-08-21T05:45:03;11.88;;;8.10;;
31732;SDS011;18312;51.486;7.144;2022-08-21T05:47:31;26.92;;;8.60;;
31732;SDS011;18312;51.486;7.144;2022-08-21T05:49:58;17.75;;;8.80;;
31732;SDS011;18312;51.486;7.144;2022-08-21T05:52:24;18.98;;;10.02;;
31732;SDS011;18312;51.486;7.144;2022-08-21T05:54:53;20.33;;;9.65;;
31732;SDS011;18312;51.486;7.144;2022-08-21T05:57:20;15.35;;;8.68;;
31732;SDS011;18312;51.486;7.144;2022-08-21T05:59:48;23.27;;;10.60;;
31732;SDS011;18312;51.486;7.144;2022-08-21T06:02:16;19.70;;;10.38;;
31732;SDS011;18312;51.486;7.144;2022-08-21T06:04:43;27.25;;;9.65;;
31732;SDS011;18312;51.486;7.144;2022-08-21T06:07:10;26.20;;;10.65;;
31732;SDS011;18312;51.486;7.144;2022-08-21T06:09:36;18.23;;;10.35;;
31732;SDS011;18312;51.486;7.144;2022-08-21T06:12:05;26.50;;;10.95;;
31732;SDS011;18312;51.486;7.144;2022-08-21T06:14:34;24.25;;;10.88;;
31732;SDS011;18312;51.486;7.144;2022-08-21T06:17:02;20.42;;;10.05;;
31732;SDS011;18312;51.486;7.144;2022-08-21T06:19:29;23.83;;;9.90;;
31732;SDS011;18312;51.486;7.144;2022-08-21T06:21:56;14.00;;;8.63;;
31732;SDS011;18312;51.486;7.144;2022-08-21T06:24:26;16.42;;;9.60;;
31732;SDS011;18312;51.486;7.144;2022-08-21T06:29:23;17.45;;;8.88;;
31732;SDS011;18312;51.486;7.144;2022-08-21T06:31:50;17.35;;;8.35;;
31732;SDS011;18312;51.486;7.144;2022-08-21T06:34:17;18.88;;;8.32;;
31732;SDS011;18312;51.486;7.144;2022-08-21T06:36:44;17.05;;;9.68;;
31732;SDS011;18312;51.486;7.144;2022-08-21T06:39:11;18.30;;;8.57;;
31732;SDS011;18312;51.486;7.144;2022-08-21T06:41:39;17.38;;;9.18;;
31732;SDS011;18312;51.486;7.144;2022-08-21T06:44:06;18.55;;;8.80;;
31732;SDS011;18312;51.486;7.144;2022-08-21T06:46:34;23.00;;;8.90;;
31732;SDS011;18312;51.486;7.144;2022-08-21T06:49:01;17.08;;;8.05;;
31732;SDS011;18312;51.486;7.144;2022-08-21T06:51:28;17.88;;;8.18;;
31732;SDS011;18312;51.486;7.144;2022-08-21T06:53:55;21.98;;;8.20;;
31732;SDS011;18312;51.486;7.144;2022-08-21T06:56:22;17.60;;;8.13;;
31732;SDS011;18312;51.486;7.144;2022-08-21T06:58:48;16.58;;;8.15;;
31732;SDS011;18312;51.486;7.144;2022-08-21T07:01:15;14.20;;;7.07;;
31732;SDS011;18312;51.486;7.144;2022-08-21T07:03:43;15.07;;;7.18;;
31732;SDS011;18312;51.486;7.144;2022-08-21T07:06:10;13.82;;;5.88;;
31732;SDS011;18312;51.486;7.144;2022-08-21T07:08:38;12.93;;;5.35;;
31732;SDS011;18312;51.486;7.144;2022-08-21T07:11:07;12.77;;;4.65;;
31732;SDS011;18312;51.486;7.144;2022-08-21T07:13:36;12.60;;;4.68;;
31732;SDS011;18312;51.486;7.144;2022-08-21T07:16:04;7.07;;;4.20;;
31732;SDS011;18312;51.486;7.144;2022-08-21T07:18:36;11.95;;;5.32;;
31732;SDS011;18312;51.486;7.144;2022-08-21T07:21:07;9.05;;;4.50;;
31732;SDS011;18312;51.486;7.144;2022-08-21T07:23:38;10.55;;;5.03;;
31732;SDS011;18312;51.486;7.144;2022-08-21T07:26:07;12.20;;;4.57;;
31732;SDS011;18312;51.486;7.144;2022-08-21T07:28:34;15.63;;;4.93;;
31732;SDS011;18312;51.486;7.144;2022-08-21T07:31:01;12.30;;;5.93;;
31732;SDS011;18312;51.486;7.144;2022-08-21T07:33:30;10.50;;;5.53;;
31732;SDS011;18312;51.486;7.144;2022-08-21T07:35:58;14.48;;;5.47;;
31732;SDS011;18312;51.486;7.144;2022-08-21T07:38:26;10.65;;;4.43;;
31732;SDS011;18312;51.486;7.144;2022-08-21T07:40:54;9.88;;;4.63;;
31732;SDS011;18312;51.486;7.144;2022-08-21T07:43:23;9.63;;;4.03;;
31732;SDS011;18312;51.486;7.144;2022-08-21T07:45:50;12.90;;;4.13;;
31732;SDS011;18312;51.486;7.144;2022-08-21T07:48:18;9.82;;;3.50;;
31732;SDS011;18312;51.486;7.144;2022-08-21T07:50:45;7.70;;;3.70;;
31732;SDS011;18312;51.486;7.144;2022-08-21T07:53:13;16.40;;;4.07;;
31732;SDS011;18312;51.486;7.144;2022-08-21T07:55:44;12.98;;;4.78;;
31732;SDS011;18312;51.486;7.144;2022-08-21T07:58:10;9.57;;;3.63;;
31732;SDS011;18312;51.486;7.144;2022-08-21T08:00:37;8.25;;;3.10;;
31732;SDS011;18312;51.486;7.144;2022-08-21T08:03:05;6.78;;;3.20;;
31732;SDS011;18312;51.486;7.144;2022-08-21T08:05:32;9.95;;;3.75;;
31732;SDS011;18312;51.486;7.144;2022-08-21T08:08:02;9.98;;;3.03;;
31732;SDS011;18312;51.486;7.144;2022-08-21T08:10:29;6.50;;;3.10;;
31732;SDS011;18312;51.486;7.144;2022-08-21T08:12:57;7.70;;;2.90;;
31732;SDS011;18312;51.486;7.144;2022-08-21T08:15:24;8.18;;;2.42;;
31732;SDS011;18312;51.486;7.144;2022-08-21T08:17:53;6.77;;;2.70;;
31732;SDS011;18312;51.486;7.144;2022-08-21T08:20:20;10.30;;;2.88;;
31732;SDS011;18312;51.486;7.144;2022-08-21T08:22:48;8.85;;;2.55;;
31732;SDS011;18312;51.486;7.144;2022-08-21T08:25:15;9.25;;;2.72;;
31732;SDS011;18312;51.486;7.144;2022-08-21T08:27:43;7.47;;;3.00;;
31732;SDS011;18312;51.486;7.144;2022-08-21T08:30:12;7.43;;;2.38;;
31732;SDS011;18312;51.486;7.144;2022-08-21T08:32:46;8.75;;;2.47;;
31732;SDS011;18312;51.486;7.144;2022-08-21T08:35:16;8.57;;;2.75;;
31732;SDS011;18312;51.486;7.144;2022-08-21T08:37:43;6.32;;;2.90;;
31732;SDS011;18312;51.486;7.144;2022-08-21T08:40:11;4.50;;;2.17;;
31732;SDS011;18312;51.486;7.144;2022-08-21T08:42:39;4.73;;;2.30;;
31732;SDS011;18312;51.486;7.144;2022-08-21T08:45:08;12.50;;;2.95;;
31732;SDS011;18312;51.486;7.144;2022-08-21T08:47:39;8.52;;;2.58;;
31732;SDS011;18312;51.486;7.144;2022-08-21T08:50:11;9.35;;;2.67;;
31732;SDS011;18312;51.486;7.144;2022-08-21T08:52:43;10.02;;;3.03;;
31732;SDS011;18312;51.486;7.144;2022-08-21T08:55:18;6.57;;;2.65;;
31732;SDS011;18312;51.486;7.144;2022-08-21T08:57:49;5.85;;;2.10;;
31732;SDS011;18312;51.486;7.144;2022-08-21T09:00:19;4.25;;;1.95;;
31732;SDS011;18312;51.486;7.144;2022-08-21T09:05:21;5.55;;;1.65;;
31732;SDS011;18312;51.486;7.144;2022-08-21T09:07:52;10.10;;;2.50;;
31732;SDS011;18312;51.486;7.144;2022-08-21T09:10:30;6.38;;;1.80;;
31732;SDS011;18312;51.486;7.144;2022-08-21T09:13:10;3.88;;;1.75;;
31732;SDS011;18312;51.486;7.144;2022-08-21T09:15:44;6.32;;;1.48;;
31732;SDS011;18312;51.486;7.144;2022-08-21T09:18:25;8.38;;;1.60;;
31732;SDS011;18312;51.486;7.144;2022-08-21T09:21:10;8.85;;;1.83;;
31732;SDS011;18312;51.486;7.144;2022-08-21T09:23:49;3.28;;;1.20;;
31732;SDS011;18312;51.486;7.144;2022-08-21T09:26:23;4.47;;;1.33;;
31732;SDS011;18312;51.486;7.144;2022-08-21T09:28:59;5.72;;;1.38;;
31732;SDS011;18312;51.486;7.144;2022-08-21T09:31:27;8.90;;;1.55;;
31732;SDS011;18312;51.486;7.144;2022-08-21T09:34:01;6.72;;;1.33;;
31732;SDS011;18312;51.486;7.144;2022-08-21T09:36:35;4.53;;;1.25;;
31732;SDS011;18312;51.486;7.144;2022-08-21T09:39:07;6.35;;;1.70;;
31732;SDS011;18312;51.486;7.144;2022-08-21T09:41:36;7.20;;;1.17;;
31732;SDS011;18312;51.486;7.144;2022-08-21T09:44:04;4.55;;;1.25;;
31732;SDS011;18312;51.486;7.144;2022-08-21T09:46:32;6.85;;;1.20;;
31732;SDS011;18312;51.486;7.144;2022-08-21T09:49:02;5.38;;;0.95;;
31732;SDS011;18312;51.486;7.144;2022-08-21T09:51:31;4.05;;;1.15;;
31732;SDS011;18312;51.486;7.144;2022-08-21T09:56:39;7.45;;;1.08;;
31732;SDS011;18312;51.486;7.144;2022-08-21T09:59:35;3.58;;;0.93;;
31732;SDS011;18312;51.486;7.144;2022-08-21T10:02:22;2.92;;;0.68;;
31732;SDS011;18312;51.486;7.144;2022-08-21T10:07:22;5.72;;;1.30;;
31732;SDS011;18312;51.486;7.144;2022-08-21T10:09:58;3.75;;;0.90;;
31732;SDS011;18312;51.486;7.144;2022-08-21T10:12:28;3.92;;;0.82;;
31732;SDS011;18312;51.486;7.144;2022-08-21T10:15:05;4.75;;;0.95;;
31732;SDS011;18312;51.486;7.144;2022-08-21T10:17:41;5.30;;;1.35;;
31732;SDS011;18312;51.486;7.144;2022-08-21T10:20:18;1.55;;;0.75;;
31732;SDS011;18312;51.486;7.144;2022-08-21T10:22:52;3.85;;;1.20;;
31732;SDS011;18312;51.486;7.144;2022-08-21T10:25:30;1.42;;;0.63;;
31732;SDS011;18312;51.486;7.144;2022-08-21T10:28:03;1.30;;;0.63;;
31732;SDS011;18312;51.486;7.144;2022-08-21T10:30:41;2.65;;;0.82;;
31732;SDS011;18312;51.486;7.144;2022-08-21T10:33:20;4.65;;;0.90;;
31732;SDS011;18312;51.486;7.144;2022-08-21T10:36:02;4.90;;;0.80;;
31732;SDS011;18312;51.486;7.144;2022-08-21T10:38:54;3.65;;;0.70;;
31732;SDS011;18312;51.486;7.144;2022-08-21T10:41:32;0.85;;;0.63;;
31732;SDS011;18312;51.486;7.144;2022-08-21T10:44:11;4.82;;;0.95;;
31732;SDS011;18312;51.486;7.144;2022-08-21T10:46:51;2.00;;;0.60;;
31732;SDS011;18312;51.486;7.144;2022-08-21T10:49:22;3.38;;;0.80;;
31732;SDS011;18312;51.486;7.144;2022-08-21T10:52:02;4.38;;;0.50;;
31732;SDS011;18312;51.486;7.144;2022-08-21T10:54:49;2.50;;;0.55;;
31732;SDS011;18312;51.486;7.144;2022-08-21T10:57:22;2.33;;;0.82;;
31732;SDS011;18312;51.486;7.144;2022-08-21T10:59:57;3.47;;;0.60;;
31732;SDS011;18312;51.486;7.144;2022-08-21T11:02:33;0.70;;;0.35;;
31732;SDS011;18312;51.486;7.144;2022-08-21T11:05:05;2.63;;;0.68;;
31732;SDS011;18312;51.486;7.144;2022-08-21T11:07:47;2.50;;;0.70;;
31732;SDS011;18312;51.486;7.144;2022-08-21T11:10:19;3.40;;;0.70;;
31732;SDS011;18312;51.486;7.144;2022-08-21T11:12:52;2.42;;;0.50;;
31732;SDS011;18312;51.486;7.144;2022-08-21T11:15:26;1.50;;;0.40;;
31732;SDS011;18312;51.486;7.144;2022-08-21T11:18:01;3.50;;;0.50;;
31732;SDS011;18312;51.486;7.144;2022-08-21T11:20:38;1.42;;;0.57;;
31732;SDS011;18312;51.486;7.144;2022-08-21T11:23:11;2.08;;;0.52;;
31732;SDS011;18312;51.486;7.144;2022-08-21T11:25:41;2.95;;;0.35;;
31732;SDS011;18312;51.486;7.144;2022-08-21T11:28:14;3.70;;;0.57;;
31732;SDS011;18312;51.486;7.144;2022-08-21T11:30:48;1.95;;;0.57;;
31732;SDS011;18312;51.486;7.144;2022-08-21T11:33:27;4.07;;;0.70;;
31732;SDS011;18312;51.486;7.144;2022-08-21T11:36:06;3.10;;;0.43;;
31732;SDS011;18312;51.486;7.144;2022-08-21T11:38:42;2.78;;;1.08;;
31732;SDS011;18312;51.486;7.144;2022-08-21T11:41:20;2.17;;;0.50;;
31732;SDS011;18312;51.486;7.144;2022-08-21T11:43:56;3.83;;;0.77;;
31732;SDS011;18312;51.486;7.144;2022-08-21T11:46:33;1.00;;;0.57;;
31732;SDS011;18312;51.486;7.144;2022-08-21T11:49:14;1.85;;;1.00;;
31732;SDS011;18312;51.486;7.144;2022-08-21T11:51:51;3.97;;;0.70;;
31732;SDS011;18312;51.486;7.144;2022-08-21T11:54:26;2.00;;;0.60;;
31732;SDS011;18312;51.486;7.144;2022-08-21T11:57:00;4.07;;;0.60;;
31732;SDS011;18312;51.486;7.144;2022-08-21T11:59:32;0.88;;;0.30;;
31732;SDS011;18312;51.486;7.144;2022-08-21T12:02:09;2.70;;;0.68;;
31732;SDS011;18312;51.486;7.144;2022-08-21T12:04:42;3.85;;;0.55;;
31732;SDS011;18312;51.486;7.144;2022-08-21T12:07:13;2.55;;;0.35;;
31732;SDS011;18312;51.486;7.144;2022-08-21T12:12:23;2.40;;;0.60;;
31732;SDS011;18312;51.486;7.144;2022-08-21T12:15:04;1.15;;;0.70;;
31732;SDS011;18312;51.486;7.144;2022-08-21T12:17:40;4.32;;;0.50;;
31732;SDS011;18312;51.486;7.144;2022-08-21T12:20:18;0.85;;;0.60;;
31732;SDS011;18312;51.486;7.144;2022-08-21T12:23:02;2.00;;;0.70;;
31732;SDS011;18312;51.486;7.144;2022-08-21T12:25:37;3.50;;;0.70;;
31732;SDS011;18312;51.486;7.144;2022-08-21T12:28:08;2.10;;;0.70;;
31732;SDS011;18312;51.486;7.144;2022-08-21T12:30:40;2.85;;;0.70;;
31732;SDS011;18312;51.486;7.144;2022-08-21T12:33:18;1.58;;;0.65;;
31732;SDS011;18312;51.486;7.144;2022-08-21T12:35:48;4.75;;;0.73;;
31732;SDS011;18312;51.486;7.144;2022-08-21T12:38:17;2.10;;;1.00;;
31732;SDS011;18312;51.486;7.144;2022-08-21T12:40:48;1.95;;;0.60;;
31732;SDS011;18312;51.486;7.144;2022-08-21T12:43:20;3.28;;;0.43;;
31732;SDS011;18312;51.486;7.144;2022-08-21T12:45:51;2.55;;;0.40;;
31732;SDS011;18312;51.486;7.144;2022-08-21T12:48:19;1.80;;;0.52;;
31732;SDS011;18312;51.486;7.144;2022-08-21T12:50:54;1.02;;;0.40;;
31732;SDS011;18312;51.486;7.144;2022-08-21T12:53:25;3.45;;;0.80;;
31732;SDS011;18312;51.486;7.144;2022-08-21T12:55:57;1.63;;;0.57;;
31732;SDS011;18312;51.486;7.144;2022-08-21T12:58:31;2.63;;;0.80;;
31732;SDS011;18312;51.486;7.144;2022-08-21T13:01:00;2.30;;;0.50;;
31732;SDS011;18312;51.486;7.144;2022-08-21T13:03:35;2.95;;;0.68;;
31732;SDS011;18312;51.486;7.144;2022-08-21T13:06:03;1.60;;;0.60;;
31732;SDS011;18312;51.486;7.144;2022-08-21T13:08:31;2.05;;;0.77;;
31732;SDS011;18312;51.486;7.144;2022-08-21T13:11:05;1.58;;;0.70;;
31732;SDS011;18312;51.486;7.144;2022-08-21T13:13:33;2.60;;;0.63;;
31732;SDS011;18312;51.486;7.144;2022-08-21T13:16:01;0.95;;;0.52;;
31732;SDS011;18312;51.486;7.144;2022-08-21T13:18:31;3.08;;;0.80;;
31732;SDS011;18312;51.486;7.144;2022-08-21T13:21:06;3.10;;;0.57;;
31732;SDS011;18312;51.486;7.144;2022-08-21T13:23:37;2.17;;;0.60;;
31732;SDS011;18312;51.486;7.144;2022-08-21T13:26:12;3.30;;;0.80;;
31732;SDS011;18312;51.486;7.144;2022-08-21T13:28:40;2.10;;;0.60;;
31732;SDS011;18312;51.486;7.144;2022-08-21T13:31:09;1.60;;;0.60;;
31732;SDS011;18312;51.486;7.144;2022-08-21T13:33:37;2.75;;;0.70;;
31732;SDS011;18312;51.486;7.144;2022-08-21T13:36:07;3.40;;;0.60;;
31732;SDS011;18312;51.486;7.144;2022-08-21T13:38:38;2.03;;;0.57;;
31732;SDS011;18312;51.486;7.144;2022-08-21T13:41:10;2.40;;;0.40;;
31732;SDS011;18312;51.486;7.144;2022-08-21T13:43:49;2.63;;;0.32;;
31732;SDS011;18312;51.486;7.144;2022-08-21T13:46:22;4.60;;;0.57;;
31732;SDS011;18312;51.486;7.144;2022-08-21T13:48:53;2.67;;;0.50;;
31732;SDS011;18312;51.486;7.144;2022-08-21T13:51:20;1.10;;;0.47;;
31732;SDS011;18312;51.486;7.144;2022-08-21T13:53:48;2.17;;;0.50;;
31732;SDS011;18312;51.486;7.144;2022-08-21T13:56:25;1.98;;;0.43;;
31732;SDS011;18312;51.486;7.144;2022-08-21T13:58:55;2.90;;;0.77;;
31732;SDS011;18312;51.486;7.144;2022-08-21T14:01:26;0.82;;;0.50;;
31732;SDS011;18312;51.486;7.144;2022-08-21T14:03:57;1.77;;;0.60;;
31732;SDS011;18312;51.486;7.144;2022-08-21T14:06:32;0.93;;;0.38;;
31732;SDS011;18312;51.486;7.144;2022-08-21T14:09:00;3.20;;;0.40;;
31732;SDS011;18312;51.486;7.144;2022-08-21T14:11:37;0.65;;;0.35;;
31732;SDS011;18312;51.486;7.144;2022-08-21T14:14:06;2.05;;;0.60;;
31732;SDS011;18312;51.486;7.144;2022-08-21T14:16:46;2.00;;;0.77;;
31732;SDS011;18312;51.486;7.144;2022-08-21T14:19:20;3.22;;;0.70;;
31732;SDS011;18312;51.486;7.144;2022-08-21T14:21:48;1.95;;;0.73;;
31732;SDS011;18312;51.486;7.144;2022-08-21T14:24:25;0.88;;;0.47;;
31732;SDS011;18312;51.486;7.144;2022-08-21T14:27:00;2.50;;;0.40;;
31732;SDS011;18312;51.486;7.144;2022-08-21T14:29:34;1.58;;;0.50;;
31732;SDS011;18312;51.486;7.144;2022-08-21T14:32:08;1.75;;;0.68;;
31732;SDS011;18312;51.486;7.144;2022-08-21T14:34:40;0.88;;;0.43;;
31732;SDS011;18312;51.486;7.144;2022-08-21T14:37:07;0.95;;;0.30;;
31732;SDS011;18312;51.486;7.144;2022-08-21T14:39:36;0.60;;;0.40;;
31732;SDS011;18312;51.486;7.144;2022-08-21T14:42:04;1.35;;;0.45;;
31732;SDS011;18312;51.486;7.144;2022-08-21T14:44:31;2.33;;;0.55;;
31732;SDS011;18312;51.486;7.144;2022-08-21T14:46:58;3.83;;;0.52;;
31732;SDS011;18312;51.486;7.144;2022-08-21T14:49:26;0.68;;;0.50;;
31732;SDS011;18312;51.486;7.144;2022-08-21T14:52:02;1.10;;;0.40;;
31732;SDS011;18312;51.486;7.144;2022-08-21T14:54:30;2.33;;;0.68;;
31732;SDS011;18312;51.486;7.144;2022-08-21T14:56:58;1.83;;;0.47;;
31732;SDS011;18312;51.486;7.144;2022-08-21T14:59:29;3.95;;;0.70;;
31732;SDS011;18312;51.486;7.144;2022-08-21T15:02:00;1.27;;;0.50;;
31732;SDS011;18312;51.486;7.144;2022-08-21T15:04:32;1.80;;;0.60;;
31732;SDS011;18312;51.486;7.144;2022-08-21T15:07:00;3.03;;;0.75;;
31732;SDS011;18312;51.486;7.144;2022-08-21T15:09:27;4.28;;;0.50;;
31732;SDS011;18312;51.486;7.144;2022-08-21T15:11:55;2.80;;;0.75;;
31732;SDS011;18312;51.486;7.144;2022-08-21T15:14:28;6.20;;;0.65;;
31732;SDS011;18312;51.486;7.144;2022-08-21T15:16:57;0.98;;;0.60;;
31732;SDS011;18312;51.486;7.144;2022-08-21T15:19:27;2.90;;;0.52;;